sensor_id;sensor_type;location;lat;lon;timestamp;pressure;altitude;pressure_sealevel;temperature;humidity
45327;BME280;31062;49.678;24.560;2023-02-19T00:02:40;97443.97;;;4.90;86.30
45327;BME280;31062;49.678;24.560;2023-02-19T00:05:25;97455.47;;;4.96;86.75
45327;BME280;31062;49.678;24.560;2023-02-19T00:08:11;97530.78;;;4.78;87.45
45327;BME280;31062;49.678;24.560;2023-02-19T00:11:05;97469.69;;;4.70;87.93
45327;BME280;31062;49.678;24.560;2023-02-19T00:13:54;97372.94;;;3.99;88.29
45327;BME280;31062;49.678;24.560;2023-02-19T00:16:42;97450.38;;;4.37;88.66
45327;BME280;31062;49.678;24.560;2023-02-19T00:19:29;97471.56;;;4.52;88.42
45327;BME280;31062;49.678;24.560;2023-02-19T00:22:14;97407.31;;;3.92;88.34
45327;BME280;31062;49.678;24.560;2023-02-19T00:25:00;97321.28;;;3.04;87.94
45327;BME280;31062;49.678;24.560;2023-02-19T00:27:46;97467.22;;;4.19;87.14
45327;BME280;31062;49.678;24.560;2023-02-19T00:30:31;97325.69;;;3.15;87.28
45327;BME280;31062;49.678;24.560;2023-02-19T00:33:17;97496.09;;;4.42;87.33
45327;BME280;31062;49.678;24.560;2023-02-19T00:36:04;97418.09;;;3.83;87.08
45327;BME280;31062;49.678;24.560;2023-02-19T00:38:50;97500.50;;;4.45;86.59
45327;BME280;31062;49.678;24.560;2023-02-19T00:41:36;97502.31;;;4.43;86.24
45327;BME280;31062;49.678;24.560;2023-02-19T00:44:21;97497.22;;;4.39;85.47
45327;BME280;31062;49.678;24.560;2023-02-19T00:47:08;97472.56;;;3.94;85.48
45327;BME280;31062;49.678;24.560;2023-02-19T00:49:56;97474.22;;;3.97;85.24
45327;BME280;31062;49.678;24.560;2023-02-19T00:52:42;97491.00;;;4.24;85.34
45327;BME280;31062;49.678;24.560;2023-02-19T00:55:28;97438.75;;;3.84;85.13
45327;BME280;31062;49.678;24.560;2023-02-19T00:58:13;97351.06;;;3.15;85.07
45327;BME280;31062;49.678;24.560;2023-02-19T01:00:59;97499.59;;;4.28;85.23
45327;BME280;31062;49.678;24.560;2023-02-19T01:03:45;97519.53;;;4.43;84.41
45327;BME280;31062;49.678;24.560;2023-02-19T01:06:31;97548.78;;;4.48;84.61
45327;BME280;31062;49.678;24.560;2023-02-19T01:09:17;97500.53;;;4.07;84.49
45327;BME280;31062;49.678;24.560;2023-02-19T01:12:04;97520.25;;;4.36;84.49
45327;BME280;31062;49.678;24.560;2023-02-19T01:14:50;97421.94;;;3.64;84.09
45327;BME280;31062;49.678;24.560;2023-02-19T01:17:35;97379.00;;;3.29;84.51
45327;BME280;31062;49.678;24.560;2023-02-19T01:20:21;97568.91;;;4.51;84.60
45327;BME280;31062;49.678;24.560;2023-02-19T01:23:07;97383.91;;;3.08;84.00
45327;BME280;31062;49.678;24.560;2023-02-19T01:25:53;97566.00;;;4.34;84.29
45327;BME280;31062;49.678;24.560;2023-02-19T01:28:38;97369.66;;;3.02;84.33
45327;BME280;31062;49.678;24.560;2023-02-19T01:31:24;97549.53;;;4.19;84.45
45327;BME280;31062;49.678;24.560;2023-02-19T01:34:10;97368.16;;;2.93;84.35
45327;BME280;31062;49.678;24.560;2023-02-19T01:36:57;97376.59;;;3.03;84.37
45327;BME280;31062;49.678;24.560;2023-02-19T01:39:42;97572.94;;;4.12;84.41
45327;BME280;31062;49.678;24.560;2023-02-19T01:42:27;97541.09;;;3.94;84.50
45327;BME280;31062;49.678;24.560;2023-02-19T01:45:29;97617.03;;;4.29;84.38
45327;BME280;31062;49.678;24.560;2023-02-19T01:48:30;97540.38;;;3.86;84.27
45327;BME280;31062;49.678;24.560;2023-02-19T01:51:19;97508.00;;;3.77;83.88
45327;BME280;31062;49.678;24.560;2023-02-19T01:54:06;97603.84;;;4.35;83.88
45327;BME280;31062;49.678;24.560;2023-02-19T01:56:54;97417.13;;;3.12;83.18
45327;BME280;31062;49.678;24.560;2023-02-19T01:59:41;97560.13;;;4.07;83.29
45327;BME280;31062;49.678;24.560;2023-02-19T02:02:27;97551.91;;;3.99;83.36
45327;BME280;31062;49.678;24.560;2023-02-19T02:05:23;97579.16;;;4.35;83.11
45327;BME280;31062;49.678;24.560;2023-02-19T02:08:11;97569.28;;;4.17;83.19
45327;BME280;31062;49.678;24.560;2023-02-19T02:11:15;97560.53;;;4.11;82.73
45327;BME280;31062;49.678;24.560;2023-02-19T02:14:02;97566.00;;;4.11;82.63
45327;BME280;31062;49.678;24.560;2023-02-19T02:17:00;97585.00;;;4.24;82.70
45327;BME280;31062;49.678;24.560;2023-02-19T02:26:08;97436.16;;;3.33;81.57
45327;BME280;31062;49.678;24.560;2023-02-19T02:32:29;97605.13;;;4.42;80.90
45327;BME280;31062;49.678;24.560;2023-02-19T02:35:21;97589.75;;;4.24;81.16
45327;BME280;31062;49.678;24.560;2023-02-19T02:38:10;97434.13;;;3.18;81.03
45327;BME280;31062;49.678;24.560;2023-02-19T02:40:57;97567.44;;;4.12;81.37
45327;BME280;31062;49.678;24.560;2023-02-19T02:43:43;97634.78;;;4.43;81.49
45327;BME280;31062;49.678;24.560;2023-02-19T02:46:34;97624.16;;;4.47;81.46
45327;BME280;31062;49.678;24.560;2023-02-19T02:49:22;97604.78;;;4.45;81.15
45327;BME280;31062;49.678;24.560;2023-02-19T02:52:09;97586.31;;;4.38;81.09
45327;BME280;31062;49.678;24.560;2023-02-19T02:55:15;97606.63;;;4.50;81.21
45327;BME280;31062;49.678;24.560;2023-02-19T02:58:01;97480.41;;;3.67;81.09
45327;BME280;31062;49.678;24.560;2023-02-19T03:00:52;97624.19;;;4.63;81.08
45327;BME280;31062;49.678;24.560;2023-02-19T03:04:03;97600.75;;;4.31;80.37
45327;BME280;31062;49.678;24.560;2023-02-19T03:06:49;97622.31;;;4.65;80.71
45327;BME280;31062;49.678;24.560;2023-02-19T03:09:39;97564.53;;;4.25;80.92
45327;BME280;31062;49.678;24.560;2023-02-19T03:12:29;97430.13;;;3.34;80.63
45327;BME280;31062;49.678;24.560;2023-02-19T03:15:39;97442.38;;;3.41;80.59
45327;BME280;31062;49.678;24.560;2023-02-19T03:18:48;97448.97;;;3.45;80.96
45327;BME280;31062;49.678;24.560;2023-02-19T03:22:00;97660.78;;;4.73;81.15
45327;BME280;31062;49.678;24.560;2023-02-19T03:25:00;97472.00;;;3.57;80.72
45327;BME280;31062;49.678;24.560;2023-02-19T03:28:09;97542.75;;;4.12;80.79
45327;BME280;31062;49.678;24.560;2023-02-19T03:30:55;97670.84;;;4.78;80.99
45327;BME280;31062;49.678;24.560;2023-02-19T03:33:42;97648.69;;;4.76;80.97
45327;BME280;31062;49.678;24.560;2023-02-19T03:36:34;97615.75;;;4.53;80.99
45327;BME280;31062;49.678;24.560;2023-02-19T03:39:22;97614.13;;;4.58;80.98
45327;BME280;31062;49.678;24.560;2023-02-19T03:48:35;97606.63;;;4.28;80.86
45327;BME280;31062;49.678;24.560;2023-02-19T03:51:35;97583.19;;;4.04;79.76
45327;BME280;31062;49.678;24.560;2023-02-19T03:54:35;97515.06;;;3.42;79.93
45327;BME280;31062;49.678;24.560;2023-02-19T03:57:27;97535.00;;;3.42;80.36
45327;BME280;31062;49.678;24.560;2023-02-19T04:00:21;97662.97;;;4.29;80.80
45327;BME280;31062;49.678;24.560;2023-02-19T04:06:08;97716.97;;;4.57;81.24
45327;BME280;31062;49.678;24.560;2023-02-19T04:08:59;97681.28;;;4.57;81.12
45327;BME280;31062;49.678;24.560;2023-02-19T04:11:48;97531.19;;;3.60;81.03
45327;BME280;31062;49.678;24.560;2023-02-19T04:14:42;97520.22;;;3.45;80.51
45327;BME280;31062;49.678;24.560;2023-02-19T04:17:35;97713.47;;;4.71;80.67
45327;BME280;31062;49.678;24.560;2023-02-19T04:20:23;97549.13;;;3.77;80.30
45327;BME280;31062;49.678;24.560;2023-02-19T04:23:11;97632.59;;;4.34;79.84
45327;BME280;31062;49.678;24.560;2023-02-19T04:25:58;97641.38;;;4.40;79.79
45327;BME280;31062;49.678;24.560;2023-02-19T04:28:45;97651.63;;;4.40;79.59
45327;BME280;31062;49.678;24.560;2023-02-19T04:31:32;97594.88;;;3.97;79.64
45327;BME280;31062;49.678;24.560;2023-02-19T04:34:20;97625.59;;;4.03;78.84
45327;BME280;31062;49.678;24.560;2023-02-19T04:37:06;97726.63;;;4.42;78.80
45327;BME280;31062;49.678;24.560;2023-02-19T04:39:51;97609.84;;;3.88;79.17
45327;BME280;31062;49.678;24.560;2023-02-19T04:42:37;97512.66;;;3.23;79.52
45327;BME280;31062;49.678;24.560;2023-02-19T04:45:22;97687.84;;;4.38;79.62
45327;BME280;31062;49.678;24.560;2023-02-19T04:48:08;97541.38;;;3.37;79.33
45327;BME280;31062;49.678;24.560;2023-02-19T04:50:53;97561.88;;;3.51;79.09
45327;BME280;31062;49.678;24.560;2023-02-19T04:53:39;97717.84;;;4.36;78.99
45327;BME280;31062;49.678;24.560;2023-02-19T04:56:25;97673.00;;;4.26;79.02
45327;BME280;31062;49.678;24.560;2023-02-19T04:59:11;97695.53;;;4.40;78.88
45327;BME280;31062;49.678;24.560;2023-02-19T05:01:57;97646.78;;;3.95;78.19
45327;BME280;31062;49.678;24.560;2023-02-19T05:04:42;97661.28;;;4.10;77.70
45327;BME280;31062;49.678;24.560;2023-02-19T05:07:27;97682.72;;;4.27;77.21
45327;BME280;31062;49.678;24.560;2023-02-19T05:10:13;97723.31;;;4.36;76.82
45327;BME280;31062;49.678;24.560;2023-02-19T05:12:58;97676.09;;;4.15;76.23
45327;BME280;31062;49.678;24.560;2023-02-19T05:15:53;97709.06;;;4.38;76.08
45327;BME280;31062;49.678;24.560;2023-02-19T05:18:39;97534.53;;;3.08;76.23
45327;BME280;31062;49.678;24.560;2023-02-19T05:21:25;97564.53;;;3.28;76.29
45327;BME280;31062;49.678;24.560;2023-02-19T05:24:11;97676.59;;;4.06;75.90
45327;BME280;31062;49.678;24.560;2023-02-19T05:26:56;97544.56;;;3.13;75.85
45327;BME280;31062;49.678;24.560;2023-02-19T05:29:42;97735.22;;;4.31;76.13
45327;BME280;31062;49.678;24.560;2023-02-19T05:32:27;97707.41;;;4.27;75.89
45327;BME280;31062;49.678;24.560;2023-02-19T05:35:13;97558.84;;;3.19;75.96
45327;BME280;31062;49.678;24.560;2023-02-19T05:37:58;97702.09;;;4.22;76.10
45327;BME280;31062;49.678;24.560;2023-02-19T05:40:44;97698.06;;;4.23;76.25
45327;BME280;31062;49.678;24.560;2023-02-19T05:43:30;97705.72;;;4.24;76.22
45327;BME280;31062;49.678;24.560;2023-02-19T05:46:18;97678.66;;;4.13;76.29
45327;BME280;31062;49.678;24.560;2023-02-19T05:49:04;97535.47;;;3.18;76.40
45327;BME280;31062;49.678;24.560;2023-02-19T05:51:50;97698.47;;;4.34;76.55
45327;BME280;31062;49.678;24.560;2023-02-19T05:54:35;97718.22;;;4.40;76.35
45327;BME280;31062;49.678;24.560;2023-02-19T05:57:21;97676.81;;;4.23;76.95
45327;BME280;31062;49.678;24.560;2023-02-19T06:00:11;97737.66;;;4.58;76.31
45327;BME280;31062;49.678;24.560;2023-02-19T06:02:57;97679.75;;;4.25;76.05
45327;BME280;31062;49.678;24.560;2023-02-19T06:05:42;97660.00;;;4.19;75.67
45327;BME280;31062;49.678;24.560;2023-02-19T06:08:28;97541.38;;;3.37;75.75
45327;BME280;31062;49.678;24.560;2023-02-19T06:11:13;97749.19;;;4.64;76.14
45327;BME280;31062;49.678;24.560;2023-02-19T06:13:59;97734.00;;;4.63;75.72
45327;BME280;31062;49.678;24.560;2023-02-19T06:16:44;97703.44;;;4.59;75.45
45327;BME280;31062;49.678;24.560;2023-02-19T06:19:30;97729.22;;;4.71;75.63
45327;BME280;31062;49.678;24.560;2023-02-19T06:22:16;97727.78;;;4.70;75.55
45327;BME280;31062;49.678;24.560;2023-02-19T06:25:03;97699.56;;;4.46;75.74
45327;BME280;31062;49.678;24.560;2023-02-19T06:27:51;97738.75;;;4.70;75.48
45327;BME280;31062;49.678;24.560;2023-02-19T06:30:37;97696.97;;;4.41;74.78
45327;BME280;31062;49.678;24.560;2023-02-19T06:33:23;97724.81;;;4.60;74.54
45327;BME280;31062;49.678;24.560;2023-02-19T06:36:14;97720.78;;;4.53;74.93
45327;BME280;31062;49.678;24.560;2023-02-19T06:39:00;97489.94;;;3.00;75.09
45327;BME280;31062;49.678;24.560;2023-02-19T06:41:48;97702.13;;;4.44;74.98
45327;BME280;31062;49.678;24.560;2023-02-19T06:44:35;97709.44;;;4.49;75.28
45327;BME280;31062;49.678;24.560;2023-02-19T06:47:23;97635.84;;;4.02;75.79
45327;BME280;31062;49.678;24.560;2023-02-19T06:50:09;97710.19;;;4.50;75.12
45327;BME280;31062;49.678;24.560;2023-02-19T06:52:57;97709.09;;;4.45;75.56
45327;BME280;31062;49.678;24.560;2023-02-19T06:55:57;97723.94;;;4.58;75.88
45327;BME280;31062;49.678;24.560;2023-02-19T06:58:44;97720.06;;;4.61;75.76
45327;BME280;31062;49.678;24.560;2023-02-19T07:01:32;97724.47;;;4.64;75.92
45327;BME280;31062;49.678;24.560;2023-02-19T07:04:18;97714.78;;;4.63;75.42
45327;BME280;31062;49.678;24.560;2023-02-19T07:07:04;97533.53;;;3.41;74.99
45327;BME280;31062;49.678;24.560;2023-02-19T07:09:49;97706.91;;;4.67;75.21
45327;BME280;31062;49.678;24.560;2023-02-19T07:12:35;97689.69;;;4.66;75.12
45327;BME280;31062;49.678;24.560;2023-02-19T07:15:20;97685.28;;;4.71;75.12
45327;BME280;31062;49.678;24.560;2023-02-19T07:18:06;97700.88;;;4.76;75.31
45327;BME280;31062;49.678;24.560;2023-02-19T07:20:54;97673.22;;;4.74;74.98
45327;BME280;31062;49.678;24.560;2023-02-19T07:23:45;97667.34;;;4.85;74.38
45327;BME280;31062;49.678;24.560;2023-02-19T07:26:31;97487.34;;;3.76;74.47
45327;BME280;31062;49.678;24.560;2023-02-19T07:29:17;97623.78;;;4.74;74.43
45327;BME280;31062;49.678;24.560;2023-02-19T07:32:02;97643.72;;;4.97;74.54
45327;BME280;31062;49.678;24.560;2023-02-19T07:35:00;97634.19;;;4.98;74.70
45327;BME280;31062;49.678;24.560;2023-02-19T07:37:48;97632.91;;;4.99;74.34
45327;BME280;31062;49.678;24.560;2023-02-19T07:40:33;97459.22;;;3.98;74.31
45327;BME280;31062;49.678;24.560;2023-02-19T07:43:21;97518.06;;;4.42;73.56
45327;BME280;31062;49.678;24.560;2023-02-19T07:46:09;97641.31;;;5.16;73.72
45327;BME280;31062;49.678;24.560;2023-02-19T07:48:55;97623.34;;;5.15;74.30
45327;BME280;31062;49.678;24.560;2023-02-19T07:51:40;97450.63;;;3.94;74.14
45327;BME280;31062;49.678;24.560;2023-02-19T07:54:28;97584.63;;;4.81;74.41
45327;BME280;31062;49.678;24.560;2023-02-19T07:57:14;97630.31;;;5.16;74.25
45327;BME280;31062;49.678;24.560;2023-02-19T08:00:01;97460.69;;;3.99;74.30
45327;BME280;31062;49.678;24.560;2023-02-19T08:02:56;97457.56;;;3.95;73.91
45327;BME280;31062;49.678;24.560;2023-02-19T08:05:45;97597.78;;;4.90;74.08
45327;BME280;31062;49.678;24.560;2023-02-19T08:08:30;97173.03;;;2.01;74.07
45327;BME280;31062;49.678;24.560;2023-02-19T08:11:16;97633.06;;;5.09;74.46
45327;BME280;31062;49.678;24.560;2023-02-19T08:14:25;97622.25;;;5.18;74.98
45327;BME280;31062;49.678;24.560;2023-02-19T08:17:11;97634.34;;;5.15;75.10
45327;BME280;31062;49.678;24.560;2023-02-19T08:19:57;97482.22;;;4.25;75.17
45327;BME280;31062;49.678;24.560;2023-02-19T08:22:42;97424.13;;;3.89;75.44
45327;BME280;31062;49.678;24.560;2023-02-19T08:25:28;97579.59;;;5.02;76.16
45327;BME280;31062;49.678;24.560;2023-02-19T08:28:13;97585.81;;;5.10;75.81
45327;BME280;31062;49.678;24.560;2023-02-19T08:31:04;97622.19;;;5.33;76.30
45327;BME280;31062;49.678;24.560;2023-02-19T08:33:52;97618.19;;;5.27;76.15
45327;BME280;31062;49.678;24.560;2023-02-19T08:36:38;97562.25;;;4.84;76.38
45327;BME280;31062;49.678;24.560;2023-02-19T08:39:24;97631.38;;;5.28;76.67
45327;BME280;31062;49.678;24.560;2023-02-19T08:42:09;97628.63;;;5.28;76.70
45327;BME280;31062;49.678;24.560;2023-02-19T08:44:55;97621.47;;;5.25;77.21
45327;BME280;31062;49.678;24.560;2023-02-19T08:47:40;97611.09;;;5.16;76.56
45327;BME280;31062;49.678;24.560;2023-02-19T08:50:26;97583.53;;;4.76;76.72
45327;BME280;31062;49.678;24.560;2023-02-19T08:53:11;97627.06;;;4.95;77.39
45327;BME280;31062;49.678;24.560;2023-02-19T08:55:57;97604.19;;;4.85;77.56
45327;BME280;31062;49.678;24.560;2023-02-19T08:58:43;97434.91;;;3.64;78.34
45327;BME280;31062;49.678;24.560;2023-02-19T09:01:28;97463.97;;;3.82;77.83
45327;BME280;31062;49.678;24.560;2023-02-19T09:04:14;97597.06;;;4.67;78.38
45327;BME280;31062;49.678;24.560;2023-02-19T09:06:59;97620.16;;;4.48;78.55
45327;BME280;31062;49.678;24.560;2023-02-19T09:09:45;97598.56;;;4.53;79.40
45327;BME280;31062;49.678;24.560;2023-02-19T09:12:30;97619.06;;;4.51;79.69
45327;BME280;31062;49.678;24.560;2023-02-19T09:15:18;97570.38;;;4.29;79.37
45327;BME280;31062;49.678;24.560;2023-02-19T09:18:03;97600.75;;;4.46;79.82
45327;BME280;31062;49.678;24.560;2023-02-19T09:20:49;97410.75;;;3.17;80.07
45327;BME280;31062;49.678;24.560;2023-02-19T09:23:35;97602.59;;;4.51;80.44
45327;BME280;31062;49.678;24.560;2023-02-19T09:26:21;97543.31;;;4.18;80.36
45327;BME280;31062;49.678;24.560;2023-02-19T09:29:08;97573.31;;;4.46;80.76
45327;BME280;31062;49.678;24.560;2023-02-19T09:31:55;97539.47;;;4.14;81.14
45327;BME280;31062;49.678;24.560;2023-02-19T09:34:42;97401.13;;;3.39;80.57
45327;BME280;31062;49.678;24.560;2023-02-19T09:37:28;97438.00;;;3.60;80.91
45327;BME280;31062;49.678;24.560;2023-02-19T09:40:14;97578.44;;;4.58;80.75
45327;BME280;31062;49.678;24.560;2023-02-19T09:43:08;97430.50;;;3.53;80.97
45327;BME280;31062;49.678;24.560;2023-02-19T09:46:08;97469.47;;;3.75;81.27
45327;BME280;31062;49.678;24.560;2023-02-19T09:49:01;97581.72;;;4.56;81.21
45327;BME280;31062;49.678;24.560;2023-02-19T09:51:51;97519.38;;;4.11;81.12
45327;BME280;31062;49.678;24.560;2023-02-19T09:54:39;97485.53;;;3.86;81.57
45327;BME280;31062;49.678;24.560;2023-02-19T09:57:28;97551.38;;;4.46;81.92
45327;BME280;31062;49.678;24.560;2023-02-19T10:00:23;97444.78;;;3.75;80.99
45327;BME280;31062;49.678;24.560;2023-02-19T10:03:13;97405.84;;;3.46;81.29
45327;BME280;31062;49.678;24.560;2023-02-19T10:06:06;97421.19;;;3.41;81.56
45327;BME280;31062;49.678;24.560;2023-02-19T10:11:54;97424.47;;;3.32;81.42
45327;BME280;31062;49.678;24.560;2023-02-19T10:14:46;97589.56;;;4.82;81.53
45327;BME280;31062;49.678;24.560;2023-02-19T10:17:33;97566.31;;;4.76;81.02
45327;BME280;31062;49.678;24.560;2023-02-19T10:20:21;97513.28;;;4.43;80.70
45327;BME280;31062;49.678;24.560;2023-02-19T10:23:13;97505.25;;;4.37;80.37
45327;BME280;31062;49.678;24.560;2023-02-19T10:26:00;97569.22;;;4.78;80.42
45327;BME280;31062;49.678;24.560;2023-02-19T10:28:45;97563.22;;;4.64;80.23
45327;BME280;31062;49.678;24.560;2023-02-19T10:31:32;97525.34;;;4.47;80.38
45327;BME280;31062;49.678;24.560;2023-02-19T10:34:20;97575.84;;;4.75;80.24
45327;BME280;31062;49.678;24.560;2023-02-19T10:37:12;97564.31;;;4.69;80.57
45327;BME280;31062;49.678;24.560;2023-02-19T10:39:59;97338.97;;;3.11;79.91
45327;BME280;31062;49.678;24.560;2023-02-19T10:42:47;97586.81;;;4.75;80.32
45327;BME280;31062;49.678;24.560;2023-02-19T10:45:45;97559.38;;;4.75;80.38
45327;BME280;31062;49.678;24.560;2023-02-19T10:48:59;97574.03;;;4.70;80.14
45327;BME280;31062;49.678;24.560;2023-02-19T10:51:45;97519.72;;;4.45;80.15
45327;BME280;31062;49.678;24.560;2023-02-19T10:54:33;97383.56;;;3.49;80.39
45327;BME280;31062;49.678;24.560;2023-02-19T11:03:21;97542.69;;;4.88;80.44
45327;BME280;31062;49.678;24.560;2023-02-19T11:06:11;97389.41;;;3.84;79.89
45327;BME280;31062;49.678;24.560;2023-02-19T11:08:58;97472.13;;;4.35;79.81
45327;BME280;31062;49.678;24.560;2023-02-19T11:11:49;97531.91;;;4.75;79.78
45327;BME280;31062;49.678;24.560;2023-02-19T11:14:36;97535.19;;;4.73;80.18
45327;BME280;31062;49.678;24.560;2023-02-19T11:17:32;97489.72;;;4.32;80.44
45327;BME280;31062;49.678;24.560;2023-02-19T11:20:17;97360.38;;;3.35;80.37
45327;BME280;31062;49.678;24.560;2023-02-19T11:23:12;97368.22;;;3.31;80.86
45327;BME280;31062;49.678;24.560;2023-02-19T11:26:01;97511.47;;;4.30;81.29
45327;BME280;31062;49.678;24.560;2023-02-19T11:28:56;97345.75;;;3.17;81.53
45327;BME280;31062;49.678;24.560;2023-02-19T11:31:42;97524.28;;;4.43;81.70
45327;BME280;31062;49.678;24.560;2023-02-19T11:34:29;97449.34;;;3.95;82.06
45327;BME280;31062;49.678;24.560;2023-02-19T11:37:16;97548.78;;;4.56;81.74
45327;BME280;31062;49.678;24.560;2023-02-19T11:40:03;97453.91;;;4.00;81.94
45327;BME280;31062;49.678;24.560;2023-02-19T11:42:57;97343.75;;;3.18;81.57
45327;BME280;31062;49.678;24.560;2023-02-19T11:49:42;97524.84;;;4.34;82.18
45327;BME280;31062;49.678;24.560;2023-02-19T11:55:40;97518.44;;;4.31;82.89
45327;BME280;31062;49.678;24.560;2023-02-19T12:10:36;97479.63;;;4.42;82.38
45327;BME280;31062;49.678;24.560;2023-02-19T12:16:49;97336.09;;;3.39;82.40
45327;BME280;31062;49.678;24.560;2023-02-19T12:22:59;97326.94;;;3.29;81.21
45327;BME280;31062;49.678;24.560;2023-02-19T12:42:18;97488.38;;;4.64;81.64
45327;BME280;31062;49.678;24.560;2023-02-19T12:51:05;97493.88;;;4.64;82.28
45327;BME280;31062;49.678;24.560;2023-02-19T12:54:00;97496.78;;;4.66;82.13
45327;BME280;31062;49.678;24.560;2023-02-19T12:57:11;97495.69;;;4.69;81.43
45327;BME280;31062;49.678;24.560;2023-02-19T13:00:39;97490.19;;;4.69;81.79
45327;BME280;31062;49.678;24.560;2023-02-19T13:03:34;97524.59;;;4.70;81.68
45327;BME280;31062;49.678;24.560;2023-02-19T13:06:47;97501.50;;;4.73;81.03
45327;BME280;31062;49.678;24.560;2023-02-19T13:12:41;97508.53;;;4.59;80.90
45327;BME280;31062;49.678;24.560;2023-02-19T13:15:40;97026.88;;;1.13;80.37
45327;BME280;31062;49.678;24.560;2023-02-19T13:18:33;97495.00;;;4.30;80.99
45327;BME280;31062;49.678;24.560;2023-02-19T13:21:24;97345.94;;;3.12;81.45
45327;BME280;31062;49.678;24.560;2023-02-19T13:24:38;97524.31;;;4.20;81.89
45327;BME280;31062;49.678;24.560;2023-02-19T13:27:39;97393.44;;;3.37;81.30
45327;BME280;31062;49.678;24.560;2023-02-19T13:30:59;97521.00;;;4.14;81.61
45327;BME280;31062;49.678;24.560;2023-02-19T13:36:59;97471.81;;;3.70;80.57
45327;BME280;31062;49.678;24.560;2023-02-19T13:39:56;97504.53;;;3.84;81.14
45327;BME280;31062;49.678;24.560;2023-02-19T13:42:51;97401.41;;;3.05;81.03
45327;BME280;31062;49.678;24.560;2023-02-19T13:48:32;97430.47;;;3.08;81.41
45327;BME280;31062;49.678;24.560;2023-02-19T13:54:21;97505.97;;;3.54;82.08
45327;BME280;31062;49.678;24.560;2023-02-19T14:09:46;97551.25;;;3.48;82.84
45327;BME280;31062;49.678;24.560;2023-02-19T14:12:36;97487.16;;;2.92;83.11
45327;BME280;31062;49.678;24.560;2023-02-19T14:15:48;97468.88;;;2.79;83.32
45327;BME280;31062;49.678;24.560;2023-02-19T14:21:35;97558.19;;;3.34;83.59
45327;BME280;31062;49.678;24.560;2023-02-19T14:24:22;97399.22;;;2.09;83.70
45327;BME280;31062;49.678;24.560;2023-02-19T14:27:10;97566.19;;;3.32;83.93
45327;BME280;31062;49.678;24.560;2023-02-19T14:29:55;97561.06;;;3.28;84.06
45327;BME280;31062;49.678;24.560;2023-02-19T14:32:42;97544.56;;;3.13;84.22
45327;BME280;31062;49.678;24.560;2023-02-19T14:35:37;97581.38;;;3.40;84.45
45327;BME280;31062;49.678;24.560;2023-02-19T14:38:30;97447.91;;;2.46;83.84
45327;BME280;31062;49.678;24.560;2023-02-19T14:41:19;97526.94;;;2.85;83.24
45327;BME280;31062;49.678;24.560;2023-02-19T14:44:20;97569.16;;;2.98;83.13
45327;BME280;31062;49.678;24.560;2023-02-19T14:47:13;97425.13;;;2.15;82.37
45327;BME280;31062;49.678;24.560;2023-02-19T14:50:04;97601.56;;;3.22;82.76
45327;BME280;31062;49.678;24.560;2023-02-19T14:52:52;97598.13;;;3.21;83.09
45327;BME280;31062;49.678;24.560;2023-02-19T14:55:44;97544.22;;;2.80;83.42
45327;BME280;31062;49.678;24.560;2023-02-19T14:58:31;97616.19;;;3.24;83.43
45327;BME280;31062;49.678;24.560;2023-02-19T15:01:25;97610.00;;;3.24;82.87
45327;BME280;31062;49.678;24.560;2023-02-19T15:04:21;97567.50;;;2.95;82.78
45327;BME280;31062;49.678;24.560;2023-02-19T15:07:10;97581.75;;;3.01;82.72
45327;BME280;31062;49.678;24.560;2023-02-19T15:10:03;97410.81;;;1.94;82.40
45327;BME280;31062;49.678;24.560;2023-02-19T15:12:52;97615.16;;;3.35;82.42
45327;BME280;31062;49.678;24.560;2023-02-19T15:15:43;97598.84;;;3.22;82.32
45327;BME280;31062;49.678;24.560;2023-02-19T15:18:29;97503.56;;;2.49;81.32
45327;BME280;31062;49.678;24.560;2023-02-19T15:21:23;97628.31;;;3.37;81.50
45327;BME280;31062;49.678;24.560;2023-02-19T15:24:11;97445.50;;;2.07;80.48
45327;BME280;31062;49.678;24.560;2023-02-19T15:26:58;97629.75;;;3.30;80.35
45327;BME280;31062;49.678;24.560;2023-02-19T15:29:46;97607.34;;;3.03;80.05
45327;BME280;31062;49.678;24.560;2023-02-19T15:32:33;97639.22;;;3.29;79.86
45327;BME280;31062;49.678;24.560;2023-02-19T15:35:19;97609.72;;;3.07;80.09
45327;BME280;31062;49.678;24.560;2023-02-19T15:38:09;97640.53;;;3.00;80.01
45327;BME280;31062;49.678;24.560;2023-02-19T15:40:56;97492.66;;;2.28;79.65
45327;BME280;31062;49.678;24.560;2023-02-19T15:43:50;97458.44;;;2.06;79.51
45327;BME280;31062;49.678;24.560;2023-02-19T15:46:39;97641.59;;;3.25;79.50
45327;BME280;31062;49.678;24.560;2023-02-19T15:49:33;97478.31;;;2.07;79.54
45327;BME280;31062;49.678;24.560;2023-02-19T15:55:47;97666.63;;;3.29;79.65
45327;BME280;31062;49.678;24.560;2023-02-19T15:58:45;97495.19;;;1.97;79.53
45327;BME280;31062;49.678;24.560;2023-02-19T16:01:35;97675.16;;;3.18;79.92
45327;BME280;31062;49.678;24.560;2023-02-19T16:04:22;97646.69;;;2.93;80.08
45327;BME280;31062;49.678;24.560;2023-02-19T16:07:29;97681.75;;;3.22;79.74
45327;BME280;31062;49.678;24.560;2023-02-19T16:10:23;97583.66;;;2.49;79.84
45327;BME280;31062;49.678;24.560;2023-02-19T16:13:10;97683.75;;;3.22;79.58
45327;BME280;31062;49.678;24.560;2023-02-19T16:16:11;97532.25;;;2.06;79.42
45327;BME280;31062;49.678;24.560;2023-02-19T16:19:00;97663.09;;;2.85;79.27
45327;BME280;31062;49.678;24.560;2023-02-19T16:21:45;97660.88;;;2.83;79.31
45327;BME280;31062;49.678;24.560;2023-02-19T16:24:36;97718.38;;;3.12;78.88
45327;BME280;31062;49.678;24.560;2023-02-19T16:27:35;97716.75;;;3.09;78.59
45327;BME280;31062;49.678;24.560;2023-02-19T16:30:29;97714.66;;;3.02;78.79
45327;BME280;31062;49.678;24.560;2023-02-19T16:36:37;97665.44;;;2.60;78.95
45327;BME280;31062;49.678;24.560;2023-02-19T16:39:25;97573.88;;;1.91;78.88
45327;BME280;31062;49.678;24.560;2023-02-19T16:42:12;97688.13;;;2.68;78.60
45327;BME280;31062;49.678;24.560;2023-02-19T16:44:58;97588.88;;;1.98;78.57
45327;BME280;31062;49.678;24.560;2023-02-19T16:47:44;97540.25;;;1.62;78.57
45327;BME280;31062;49.678;24.560;2023-02-19T16:50:32;97725.09;;;2.82;78.66